Time;durP1;ratioP1;P1;durP2;ratioP2;P2;SDS_P1;SDS_P2;PMS_P1;PMS_P2;Temp;Humidity;BMP_temperature;BMP_pressure;BME280_temperature;BME280_humidity;BME280_pressure;Samples;Min_cycle;Max_cycle;Signal;HPM_P1;HPM_P2
2022/06/30 00:01:52;;;;;;;11.07;9.97;;;;;;;20.99;92.34;97809.66;4135512;28;20635;-91
2022/06/30 00:03:56;;;;;;;12.07;10.97;;;;;;;20.99;92.66;97801.72;4121066;28;20632;-90
2022/06/30 00:06:00;;;;;;;12.00;10.80;;;;;;;20.95;92.35;97805.72;4130381;28;21300;-90
2022/06/30 00:08:03;;;;;;;11.93;10.80;;;;;;;20.91;92.14;97799.94;4146749;28;21267;-90
2022/06/30 00:10:10;;;;;;;11.47;10.27;;;;;;;20.90;91.48;97805.41;4143138;28;21478;-91
2022/06/30 00:12:13;;;;;;;15.50;11.23;;;;;;;20.85;91.78;97805.94;4141711;28;20665;-89
2022/06/30 00:14:16;;;;;;;10.97;9.97;;;;;;;20.83;93.89;97801.81;4146896;28;20642;-91
2022/06/30 00:16:20;;;;;;;10.90;9.90;;;;;;;20.81;93.13;97803.81;4147745;28;20686;-90
2022/06/30 00:18:23;;;;;;;12.03;10.83;;;;;;;20.78;94.09;97804.16;4146322;28;20624;-89
2022/06/30 00:20:31;;;;;;;12.83;10.70;;;;;;;20.78;92.69;97804.16;4141131;28;20740;-89
2022/06/30 00:22:36;;;;;;;12.00;10.87;;;;;;;20.79;93.94;97799.66;4126139;28;21219;-90
2022/06/30 00:24:39;;;;;;;11.97;10.77;;;;;;;20.81;93.59;97801.16;4125866;28;21207;-91
2022/06/30 00:26:42;;;;;;;10.80;9.90;;;;;;;20.81;92.46;97801.97;4139623;28;20986;-90
2022/06/30 00:28:46;;;;;;;12.10;10.83;;;;;;;20.84;93.72;97803.47;4124464;28;20632;-90
2022/06/30 00:30:50;;;;;;;11.80;10.10;;;;;;;20.85;92.87;97805.94;4141467;28;20632;-91
2022/06/30 00:32:53;;;;;;;11.50;10.50;;;;;;;20.87;93.93;97809.22;4140872;28;21292;-89
2022/06/30 00:34:56;;;;;;;10.63;9.63;;;;;;;20.86;92.72;97799.63;4142863;28;20663;-91
2022/06/30 00:37:00;;;;;;;10.80;9.80;;;;;;;20.87;93.58;97798.63;4156965;28;20681;-91
2022/06/30 00:39:05;;;;;;;11.80;9.50;;;;;;;20.85;92.53;97805.94;4144283;28;20628;-91
2022/06/30 00:41:10;;;;;;;10.77;9.80;;;;;;;20.85;93.16;97797.13;4126684;28;20632;-90
2022/06/30 00:43:13;;;;;;;11.47;10.10;;;;;;;20.85;92.22;97800.63;4131082;28;20632;-90
2022/06/30 00:45:16;;;;;;;10.60;9.60;;;;;;;20.85;93.91;97794.47;4140754;28;20621;-90
2022/06/30 00:47:20;;;;;;;11.83;10.20;;;;;;;20.83;92.43;97792.00;4154865;28;21008;-90
2022/06/30 00:49:23;;;;;;;11.17;10.17;;;;;;;20.82;94.06;97789.53;4141958;28;20633;-91
2022/06/30 00:51:26;;;;;;;11.10;10.10;;;;;;;20.81;94.35;97790.56;4126077;28;20988;-91
2022/06/30 00:53:29;;;;;;;10.40;9.40;;;;;;;20.80;94.09;97797.66;4143198;28;20655;-90
2022/06/30 00:55:35;;;;;;;11.47;10.37;;;;;;;20.80;94.14;97792.34;4123592;28;20632;-90
2022/06/30 00:57:38;;;;;;;11.10;9.97;;;;;;;20.79;93.16;97789.88;4138324;28;20643;-91
2022/06/30 00:59:42;;;;;;;10.77;9.70;;;;;;;20.77;94.01;97786.59;4135900;28;20994;-90
2022/06/30 01:01:46;;;;;;;12.07;10.30;;;;;;;20.77;94.29;97785.78;4130631;28;20635;-88
2022/06/30 01:03:50;;;;;;;11.60;9.30;;;;;;;20.76;93.41;97784.94;4119793;28;20630;-90
2022/06/30 01:05:53;;;;;;;11.50;10.40;;;;;;;20.73;93.29;97785.28;4132057;28;20652;-88
2022/06/30 01:07:57;;;;;;;12.10;10.83;;;;;;;20.72;94.06;97780.16;4125596;28;20669;-90
2022/06/30 01:14:43;;;;;;;11.80;10.70;;;;;;;20.65;94.20;97785.28;4124358;28;20676;-89
2022/06/30 01:16:46;;;;;;;12.10;11.00;;;;;;;20.64;93.18;97774.88;4143436;28;20992;-90
2022/06/30 01:18:50;;;;;;;12.63;11.37;;;;;;;20.62;92.90;97771.56;4132699;28;20631;-90
2022/06/30 01:20:53;;;;;;;12.60;11.40;;;;;;;20.59;92.66;97774.56;4126546;28;20627;-91
2022/06/30 01:22:57;;;;;;;12.07;10.70;;;;;;;20.57;94.02;97774.75;4126747;28;20616;-90
2022/06/30 01:25:00;;;;;;;11.87;10.63;;;;;;;20.55;92.98;97768.81;4147021;28;20658;-91
2022/06/30 01:27:04;;;;;;;12.80;11.47;;;;;;;20.54;93.63;97767.13;4147795;28;21050;-90
2022/06/30 01:29:07;;;;;;;11.90;10.80;;;;;;;20.51;94.07;97764.84;4132367;28;20647;-91
2022/06/30 01:31:10;;;;;;;12.17;10.90;;;;;;;20.48;94.46;97761.72;4134940;28;20631;-90
2022/06/30 01:33:14;;;;;;;11.43;10.53;;;;;;;20.46;94.32;97761.88;4134469;28;21010;-90
2022/06/30 01:35:37;;;;;;;13.23;10.43;;;;;;;20.44;94.70;97761.22;4122589;28;20631;-90
2022/06/30 01:37:51;;;;;;;12.30;11.10;;;;;;;20.43;94.43;97756.94;4122413;28;20675;-90
2022/06/30 01:39:56;;;;;;;12.47;11.30;;;;;;;20.42;94.34;97759.75;4132604;28;20632;-90
2022/06/30 01:41:59;;;;;;;11.43;10.13;;;;;;;20.39;94.16;97763.56;4134442;28;20639;-91
2022/06/30 01:44:02;;;;;;;12.40;11.13;;;;;;;20.37;94.24;97762.94;4146697;28;20635;-90
2022/06/30 01:46:05;;;;;;;11.97;10.87;;;;;;;20.34;93.01;97757.97;4135425;28;20636;-90
2022/06/30 01:48:10;;;;;;;11.20;10.03;;;;;;;20.33;94.17;97761.59;4158511;28;20623;-90
2022/06/30 01:50:15;;;;;;;11.60;10.40;;;;;;;20.31;94.19;97757.47;4130538;28;20621;-88
2022/06/30 01:52:19;;;;;;;12.20;11.10;;;;;;;20.30;93.40;97766.44;4133451;28;20631;-89
2022/06/30 01:54:22;;;;;;;13.20;10.93;;;;;;;20.30;93.38;97761.13;4130487;28;20669;-91
2022/06/30 01:56:27;;;;;;;11.70;10.50;;;;;;;20.27;93.71;97755.38;4129530;28;20627;-91
2022/06/30 01:58:30;;;;;;;10.37;9.47;;;;;;;20.23;93.31;97754.88;4146751;28;20635;-90
2022/06/30 02:00:34;;;;;;;10.97;9.87;;;;;;;20.21;94.56;97753.41;4140836;28;20639;-90
2022/06/30 02:02:37;;;;;;;11.50;10.27;;;;;;;20.18;94.59;97748.44;4139857;28;20722;-90
2022/06/30 02:04:51;;;;;;;11.70;10.40;;;;;;;20.14;93.65;97750.59;4128229;28;20664;-89
2022/06/30 02:06:54;;;;;;;12.30;11.20;;;;;;;20.15;93.70;97746.16;4129047;28;20734;-90
2022/06/30 02:09:17;;;;;;;12.30;11.10;;;;;;;20.14;93.67;97749.78;4144270;28;20629;-90
2022/06/30 02:11:20;;;;;;;14.27;10.47;;;;;;;20.12;93.66;97743.84;4141582;28;21207;-90
2022/06/30 02:13:24;;;;;;;12.83;10.80;;;;;;;20.07;93.04;97738.22;4141446;28;20671;-90
2022/06/30 02:15:33;;;;;;;10.87;9.87;;;;;;;20.02;93.87;97730.78;4121563;28;20697;-90
2022/06/30 02:17:36;;;;;;;11.67;10.57;;;;;;;19.98;93.18;97740.09;4154433;28;20645;-90
2022/06/30 02:19:40;;;;;;;11.63;10.63;;;;;;;19.94;93.54;97737.94;4136532;28;20631;-90
2022/06/30 02:21:43;;;;;;;12.40;11.20;;;;;;;19.92;94.15;97739.91;4138288;28;20638;-90
2022/06/30 02:23:46;;;;;;;11.63;10.53;;;;;;;19.91;93.88;97733.81;4146659;28;20626;-90
2022/06/30 02:25:49;;;;;;;11.63;10.43;;;;;;;19.91;93.85;97733.81;4137085;28;20978;-88
2022/06/30 02:27:52;;;;;;;11.53;10.53;;;;;;;19.91;93.98;97735.63;4138408;28;20620;-89
2022/06/30 02:29:57;;;;;;;11.60;9.90;;;;;;;19.88;95.29;97734.16;4128167;28;20643;-90
2022/06/30 02:32:00;;;;;;;11.80;10.60;;;;;;;19.84;93.72;97738.13;4125446;28;20646;-90
2022/06/30 02:34:03;;;;;;;11.17;10.20;;;;;;;19.80;94.65;97730.69;4145724;28;20663;-91
2022/06/30 02:36:06;;;;;;;10.87;9.83;;;;;;;19.76;94.74;97734.66;4140851;28;20943;-90
2022/06/30 02:38:10;;;;;;;10.90;9.90;;;;;;;19.75;94.60;97740.94;4144074;28;20641;-90
2022/06/30 02:40:14;;;;;;;11.10;10.10;;;;;;;19.75;94.66;97743.59;4142392;28;20629;-90
2022/06/30 02:42:17;;;;;;;11.63;10.43;;;;;;;19.75;93.58;97733.00;4154885;28;20638;-90
2022/06/30 02:44:20;;;;;;;10.93;9.83;;;;;;;19.73;95.09;97732.34;4137692;28;20638;-90
2022/06/30 02:46:25;;;;;;;12.77;11.47;;;;;;;19.73;93.31;97739.47;4127909;28;20670;-90
2022/06/30 02:48:28;;;;;;;10.33;9.43;;;;;;;19.71;94.99;97737.00;4160413;28;20699;-90
2022/06/30 02:50:31;;;;;;;10.77;9.70;;;;;;;19.68;94.98;97737.34;4127911;28;20631;-89
2022/06/30 02:52:36;;;;;;;10.90;9.90;;;;;;;19.66;93.84;97736.66;4144866;28;20631;-89
2022/06/30 02:54:39;;;;;;;11.80;10.60;;;;;;;19.63;94.28;97744.94;4143598;28;20661;-88
2022/06/30 02:56:43;;;;;;;10.90;9.80;;;;;;;19.61;93.36;97746.94;4126481;28;20646;-90
2022/06/30 02:58:47;;;;;;;11.00;10.00;;;;;;;19.58;94.61;97752.56;4128010;28;20660;-90
2022/06/30 03:00:50;;;;;;;12.00;10.20;;;;;;;19.54;93.84;97745.94;4142697;28;20632;-90
2022/06/30 03:02:55;;;;;;;11.47;10.33;;;;;;;19.53;93.56;97744.31;4125741;28;20697;-89
2022/06/30 03:04:59;;;;;;;11.80;10.67;;;;;;;19.53;95.15;97744.31;4141293;28;21090;-90
2022/06/30 03:07:02;;;;;;;12.57;10.90;;;;;;;19.52;94.92;97747.94;4126224;28;20650;-90
2022/06/30 03:09:05;;;;;;;11.30;10.30;;;;;;;19.51;95.04;97756.03;4145124;28;20645;-90
2022/06/30 03:11:08;;;;;;;12.47;11.27;;;;;;;19.50;94.05;97757.88;4145299;28;21215;-90
2022/06/30 03:13:11;;;;;;;12.20;10.90;;;;;;;19.48;93.96;97765.16;4130833;28;20741;-90
2022/06/30 03:15:14;;;;;;;11.93;10.70;;;;;;;19.43;93.86;97756.06;4141994;28;20617;-90
2022/06/30 03:17:17;;;;;;;17.37;11.30;;;;;;;19.37;94.04;97762.84;4127572;28;21500;-89
2022/06/30 03:19:22;;;;;;;14.63;11.50;;;;;;;19.35;94.60;97753.44;4142611;28;20645;-90
2022/06/30 03:21:25;;;;;;;12.77;11.30;;;;;;;19.34;93.60;97751.78;4131357;28;20996;-89
2022/06/30 03:23:28;;;;;;;13.33;12.03;;;;;;;19.33;93.86;97749.28;4163740;28;20640;-89
2022/06/30 03:25:31;;;;;;;13.23;10.60;;;;;;;19.28;93.46;97754.25;4146873;28;20652;-90
2022/06/30 03:27:34;;;;;;;11.67;10.60;;;;;;;19.22;93.34;97749.63;4134664;28;21062;-90
2022/06/30 03:29:38;;;;;;;11.70;10.60;;;;;;;19.23;94.08;97761.84;4139602;28;20619;-90
2022/06/30 03:31:41;;;;;;;12.43;10.70;;;;;;;19.19;94.25;97758.72;4137557;28;20632;-90
2022/06/30 03:33:44;;;;;;;12.73;10.70;;;;;;;19.16;94.86;97751.13;4148390;28;20657;-89
2022/06/30 03:35:49;;;;;;;11.90;10.80;;;;;;;19.19;95.27;97756.06;4149501;28;20638;-90
2022/06/30 03:37:52;;;;;;;13.10;11.80;;;;;;;19.21;95.71;97762.00;4131449;28;20622;-90
2022/06/30 03:39:55;;;;;;;11.77;10.67;;;;;;;19.23;95.10;97759.22;4133045;28;20642;-90
2022/06/30 03:41:58;;;;;;;12.37;11.20;;;;;;;19.25;95.81;97760.69;4140161;28;20636;-90
2022/06/30 03:44:01;;;;;;;11.47;10.30;;;;;;;19.26;94.96;97753.59;4133069;28;20646;-90
2022/06/30 03:46:04;;;;;;;12.93;10.80;;;;;;;19.24;94.49;97756.41;4147952;28;20683;-90
2022/06/30 03:48:07;;;;;;;11.13;10.00;;;;;;;19.26;94.25;97756.22;4146384;28;20691;-89
2022/06/30 03:50:10;;;;;;;13.40;12.00;;;;;;;19.24;94.11;97758.22;4131672;28;20656;-90
2022/06/30 03:52:15;;;;;;;12.23;11.00;;;;;;;19.20;94.87;97751.59;4147820;28;21363;-90
2022/06/30 03:54:19;;;;;;;12.00;10.70;;;;;;;19.17;93.98;97751.94;4139637;28;20653;-90
2022/06/30 03:56:24;;;;;;;11.63;10.43;;;;;;;19.16;95.03;97751.13;4129456;28;20640;-89
2022/06/30 03:58:27;;;;;;;11.13;10.03;;;;;;;19.18;94.72;97758.88;4123926;28;20728;-89
2022/06/30 04:00:31;;;;;;;11.00;9.83;;;;;;;19.19;94.79;97744.69;4123167;28;21167;-90
2022/06/30 04:02:34;;;;;;;12.07;10.70;;;;;;;19.20;94.76;97749.81;4145852;28;20637;-89
2022/06/30 04:04:38;;;;;;;16.30;10.70;;;;;;;19.22;94.13;97745.16;4137254;28;21039;-89
2022/06/30 04:06:41;;;;;;;10.90;9.80;;;;;;;19.25;94.68;97752.78;4136093;28;20663;-90
2022/06/30 04:08:45;;;;;;;10.83;9.83;;;;;;;19.28;95.75;97752.44;4120149;28;21171;-89
2022/06/30 04:10:48;;;;;;;10.60;9.53;;;;;;;19.31;95.81;97743.34;4136806;28;20626;-89
2022/06/30 04:12:51;;;;;;;13.63;10.67;;;;;;;19.32;94.87;97742.34;4132902;28;20643;-90
2022/06/30 04:14:54;;;;;;;11.90;10.80;;;;;;;19.33;95.35;97742.16;4148930;28;20656;-89
2022/06/30 04:17:01;;;;;;;11.33;10.13;;;;;;;19.33;95.31;97739.53;4145736;28;20633;-90
2022/06/30 04:19:04;;;;;;;11.80;10.67;;;;;;;19.33;95.06;97739.53;4138579;28;20646;-89
2022/06/30 04:21:07;;;;;;;12.43;9.80;;;;;;;19.35;94.50;97744.66;4139392;28;20731;-90
2022/06/30 04:23:10;;;;;;;11.50;10.40;;;;;;;19.37;94.39;97742.69;4143461;28;20689;-90
2022/06/30 04:25:15;;;;;;;11.43;10.20;;;;;;;19.38;93.98;97743.34;4130900;28;20627;-89
2022/06/30 04:27:19;;;;;;;11.23;10.10;;;;;;;19.39;94.64;97745.00;4132099;28;20728;-90
2022/06/30 04:29:22;;;;;;;11.20;10.10;;;;;;;19.43;94.83;97742.84;4144410;28;20691;-90
2022/06/30 04:33:46;;;;;;;11.53;10.43;;;;;;;19.47;93.94;97742.34;4141233;28;20681;-89
2022/06/30 04:35:49;;;;;;;14.43;10.57;;;;;;;19.51;93.44;97745.47;4143543;28;20687;-89
2022/06/30 04:37:52;;;;;;;10.77;9.60;;;;;;;19.53;94.16;97746.97;4132508;28;20671;-89
2022/06/30 04:42:14;;;;;;;11.07;10.00;;;;;;;19.62;93.38;97755.69;4139722;28;20616;-89
2022/06/30 04:44:17;;;;;;;11.50;10.50;;;;;;;19.66;94.95;97755.19;4125551;28;20638;-90
2022/06/30 04:46:21;;;;;;;11.37;10.03;;;;;;;19.71;94.94;97757.31;4141324;28;20653;-91
2022/06/30 04:48:24;;;;;;;13.20;11.90;;;;;;;19.75;94.60;97753.34;4140611;28;21289;-89
2022/06/30 04:50:27;;;;;;;12.17;10.97;;;;;;;19.79;93.44;97763.44;4138208;28;20624;-90
2022/06/30 04:52:31;;;;;;;11.93;10.73;;;;;;;19.84;94.66;97758.44;4126781;28;20627;-89
2022/06/30 04:54:39;;;;;;;12.60;11.30;;;;;;;19.88;94.66;97757.97;4136155;28;21037;-89
2022/06/30 04:56:43;;;;;;;12.67;11.47;;;;;;;19.92;94.49;97748.72;4123860;28;20729;-90
2022/06/30 04:58:47;;;;;;;12.17;11.07;;;;;;;19.96;94.07;97752.66;4137736;28;20629;-89
2022/06/30 05:00:50;;;;;;;12.87;11.43;;;;;;;20.00;94.35;97737.25;4130924;28;20619;-89
2022/06/30 05:02:53;;;;;;;12.07;11.07;;;;;;;20.03;94.36;97750.16;4129422;28;20634;-90
2022/06/30 05:04:56;;;;;;;12.30;10.63;;;;;;;20.08;93.76;97747.81;4128168;28;20727;-89
2022/06/30 05:06:59;;;;;;;11.93;10.73;;;;;;;20.12;93.38;97744.66;4133275;28;20675;-90
2022/06/30 05:09:03;;;;;;;12.70;11.40;;;;;;;20.17;94.31;97750.25;4139917;28;20705;-89
2022/06/30 05:11:06;;;;;;;11.23;9.87;;;;;;;20.22;93.72;97741.78;4139271;28;20656;-90
2022/06/30 05:13:09;;;;;;;11.90;10.80;;;;;;;20.29;93.17;97745.41;4145771;28;20622;-89
2022/06/30 05:15:14;;;;;;;12.70;11.50;;;;;;;20.35;92.15;97743.69;4125835;28;20787;-90
2022/06/30 05:17:17;;;;;;;11.43;10.30;;;;;;;20.43;93.58;97745.50;4136496;28;20639;-90
2022/06/30 05:19:20;;;;;;;12.40;10.97;;;;;;;20.50;93.07;97751.75;4127139;28;20638;-90
2022/06/30 05:21:23;;;;;;;11.80;10.70;;;;;;;20.58;92.43;97749.06;4129312;28;20743;-89
2022/06/30 05:23:27;;;;;;;12.00;10.50;;;;;;;20.65;93.00;97750.84;4126389;28;20659;-88
2022/06/30 05:27:50;;;;;;;13.10;10.83;;;;;;;20.83;92.12;97743.47;4150906;28;20637;-87
2022/06/30 05:29:54;;;;;;;10.93;9.97;;;;;;;20.92;92.42;97743.22;4130922;28;20643;-88
2022/06/30 05:31:58;;;;;;;12.70;10.10;;;;;;;21.01;91.74;97749.31;4121474;28;20642;-88
2022/06/30 05:34:02;;;;;;;11.97;10.87;;;;;;;21.12;92.06;97746.22;4138404;28;20638;-88
2022/06/30 05:36:06;;;;;;;14.63;9.90;;;;;;;21.22;92.21;97750.28;4118928;28;20661;-89
2022/06/30 05:38:09;;;;;;;11.30;10.10;;;;;;;21.34;91.07;97759.47;4141260;28;20713;-88
2022/06/30 05:40:13;;;;;;;11.80;10.57;;;;;;;21.54;91.16;97758.81;4130675;28;20643;-90
2022/06/30 05:42:16;;;;;;;10.57;9.57;;;;;;;21.74;90.01;97765.28;4135969;28;20631;-90
2022/06/30 05:44:19;;;;;;;11.60;10.40;;;;;;;22.04;88.58;97765.09;4137431;28;21185;-90
2022/06/30 05:46:23;;;;;;;12.33;9.80;;;;;;;22.39;89.52;97773.16;4124399;28;20634;-91
2022/06/30 05:48:27;;;;;;;10.90;9.90;;;;;;;22.72;88.12;97766.41;4123693;28;20647;-91
2022/06/30 05:50:31;;;;;;;11.07;9.20;;;;;;;23.03;87.09;97767.78;4120368;28;20713;-90
2022/06/30 05:52:35;;;;;;;10.20;9.00;;;;;;;23.32;85.98;97765.84;4138772;28;20673;-90
2022/06/30 05:54:38;;;;;;;10.23;8.80;;;;;;;23.61;83.55;97767.53;4124497;28;21330;-90
2022/06/30 05:56:41;;;;;;;10.70;8.80;;;;;;;23.85;82.21;97767.94;4140882;28;20691;-90
2022/06/30 05:58:45;;;;;;;11.57;8.73;;;;;;;24.13;82.56;97771.38;4129770;28;20649;-89
2022/06/30 06:00:48;;;;;;;11.17;8.60;;;;;;;24.37;81.83;97763.75;4124637;28;21199;-90
2022/06/30 06:02:51;;;;;;;9.57;8.57;;;;;;;24.64;81.94;97772.50;4125776;28;21045;-90
2022/06/30 06:04:57;;;;;;;12.23;8.20;;;;;;;24.94;80.77;97781.00;4127602;28;20640;-90
2022/06/30 06:07:02;;;;;;;8.30;7.50;;;;;;;25.19;80.10;97766.94;4147944;28;20672;-90
2022/06/30 06:09:05;;;;;;;8.73;7.83;;;;;;;25.41;78.85;97771.91;4126380;28;20629;-90
2022/06/30 06:11:08;;;;;;;8.77;8.00;;;;;;;25.55;77.26;97775.41;4129058;28;20682;-91
2022/06/30 06:13:13;;;;;;;9.20;8.23;;;;;;;25.70;76.33;97772.34;4137479;28;20692;-90
2022/06/30 06:15:16;;;;;;;8.63;7.83;;;;;;;25.87;75.46;97775.41;4141282;28;20684;-90
2022/06/30 06:17:19;;;;;;;8.77;7.97;;;;;;;26.08;75.71;97775.19;4128981;28;20694;-90
2022/06/30 06:19:23;;;;;;;8.33;7.53;;;;;;;26.37;76.49;97780.88;4127922;28;20617;-90
2022/06/30 06:21:27;;;;;;;8.80;7.57;;;;;;;26.64;75.42;97784.09;4124451;28;20684;-90
2022/06/30 06:23:31;;;;;;;8.17;7.37;;;;;;;26.89;73.84;97784.22;4127392;28;20642;-91
2022/06/30 06:25:34;;;;;;;8.70;7.07;;;;;;;27.06;73.17;97784.34;4129102;28;20635;-90
2022/06/30 06:27:37;;;;;;;8.10;7.30;;;;;;;27.31;73.42;97774.50;4126726;28;20614;-90
2022/06/30 06:29:40;;;;;;;7.73;7.03;;;;;;;27.52;71.59;97774.97;4130750;28;20680;-90
2022/06/30 06:31:43;;;;;;;8.00;7.20;;;;;;;27.58;70.55;97773.31;4142777;28;21067;-90
2022/06/30 06:33:47;;;;;;;7.87;7.17;;;;;;;27.80;71.62;97777.22;4141513;28;20657;-91
2022/06/30 06:35:51;;;;;;;8.67;7.83;;;;;;;27.91;68.97;97774.66;4143457;28;20749;-90
2022/06/30 06:37:55;;;;;;;7.67;6.97;;;;;;;28.02;69.19;97774.78;4128370;28;20675;-91
2022/06/30 06:39:59;;;;;;;10.23;7.67;;;;;;;28.19;68.53;97775.88;4124992;28;20686;-91
2022/06/30 06:42:02;;;;;;;9.20;7.07;;;;;;;28.33;68.72;97774.69;4123590;28;20719;-91
2022/06/30 06:44:05;;;;;;;9.03;7.20;;;;;;;28.61;68.94;97774.97;4132315;28;20638;-90
2022/06/30 06:46:08;;;;;;;11.77;8.03;;;;;;;28.82;70.25;97774.53;4123234;28;20647;-91
2022/06/30 06:48:11;;;;;;;7.73;6.70;;;;;;;29.09;68.61;97772.09;4144322;28;20638;-92
2022/06/30 06:50:20;;;;;;;8.70;7.90;;;;;;;29.33;68.37;97763.09;4121480;28;20642;-91
2022/06/30 06:52:24;;;;;;;8.13;7.43;;;;;;;29.60;69.00;97765.16;4121315;28;20687;-91
2022/06/30 06:54:29;;;;;;;8.60;7.87;;;;;;;29.77;67.49;97757.19;4128134;28;20632;-91
2022/06/30 06:56:32;;;;;;;7.70;7.00;;;;;;;29.95;68.53;97766.03;4126146;28;20671;-90
2022/06/30 06:58:35;;;;;;;8.30;7.37;;;;;;;30.05;66.58;97764.38;4148772;28;20634;-91
2022/06/30 07:00:38;;;;;;;8.33;7.43;;;;;;;30.22;65.15;97756.41;4134033;28;20623;-91
2022/06/30 07:02:41;;;;;;;8.10;6.73;;;;;;;30.35;65.39;97750.84;4135834;28;20654;-91
2022/06/30 07:04:44;;;;;;;8.07;7.37;;;;;;;30.51;65.15;97749.03;4130828;28;20639;-91
2022/06/30 07:06:48;;;;;;;9.83;7.30;;;;;;;30.67;64.51;97748.31;4133734;28;20677;-91
2022/06/30 07:08:52;;;;;;;8.60;7.13;;;;;;;30.79;64.18;97753.66;4122406;28;21191;-91
2022/06/30 07:10:57;;;;;;;7.83;7.00;;;;;;;30.84;63.21;97761.81;4136092;28;20638;-91
2022/06/30 07:13:00;;;;;;;8.73;7.30;;;;;;;30.89;61.74;97761.97;4129361;28;20649;-91
2022/06/30 07:15:05;;;;;;;8.07;7.30;;;;;;;30.90;62.11;97753.66;4140226;28;21042;-91
2022/06/30 07:17:08;;;;;;;7.67;6.43;;;;;;;30.87;61.96;97755.97;4123052;28;20677;-93
2022/06/30 07:19:12;;;;;;;8.73;7.20;;;;;;;30.94;63.94;97761.03;4123487;28;20664;-91
2022/06/30 07:21:20;;;;;;;8.07;6.90;;;;;;;31.11;63.71;97748.41;4127521;28;21227;-91
2022/06/30 07:23:35;;;;;;;10.20;7.53;;;;;;;31.22;63.49;97752.91;4124586;28;20708;-91
2022/06/30 07:25:38;;;;;;;7.30;6.60;;;;;;;31.40;63.12;97750.84;4133422;28;20624;-90
2022/06/30 07:27:42;;;;;;;7.37;6.77;;;;;;;31.53;64.37;97750.56;4131790;28;20720;-91
2022/06/30 07:29:51;;;;;;;7.73;7.03;;;;;;;31.63;63.37;97750.69;4125853;28;20706;-91
2022/06/30 07:31:54;;;;;;;7.57;6.97;;;;;;;31.72;64.88;97751.13;4140560;28;20736;-91
2022/06/30 07:33:57;;;;;;;8.43;7.50;;;;;;;31.81;63.77;97746.97;4131323;28;20730;-91
2022/06/30 07:36:00;;;;;;;8.97;7.60;;;;;;;32.01;64.83;97751.66;4116843;28;20634;-91
2022/06/30 07:38:04;;;;;;;10.17;7.57;;;;;;;32.04;62.42;97745.75;4145484;28;20677;-92
2022/06/30 07:40:09;;;;;;;9.43;7.73;;;;;;;32.05;62.36;97744.66;4129333;28;20640;-92
2022/06/30 07:42:12;;;;;;;8.67;7.37;;;;;;;32.09;63.94;97748.53;4124943;28;20725;-91
2022/06/30 07:44:17;;;;;;;7.40;6.70;;;;;;;32.18;63.15;97746.22;4126675;28;20653;-91
2022/06/30 07:46:20;;;;;;;8.27;6.97;;;;;;;32.16;61.06;97741.06;4129270;28;20642;-91
2022/06/30 07:48:24;;;;;;;7.37;6.67;;;;;;;32.26;63.00;97749.31;4129072;28;20641;-92
2022/06/30 07:50:27;;;;;;;7.40;6.80;;;;;;;32.35;62.03;97745.09;4117702;28;20687;-91
2022/06/30 07:52:30;;;;;;;8.20;6.57;;;;;;;32.43;61.38;97740.13;4141682;28;20714;-91
2022/06/30 07:54:33;;;;;;;8.03;6.97;;;;;;;32.55;62.39;97740.84;4141793;28;20656;-91
2022/06/30 07:57:06;;;;;;;10.83;6.90;;;;;;;32.61;60.85;97745.25;4126835;28;21237;-91
2022/06/30 07:59:31;;;;;;;7.40;6.60;;;;;;;32.69;61.23;97743.97;4121450;28;20630;-91
2022/06/30 08:01:34;;;;;;;8.13;6.80;;;;;;;32.75;62.11;97743.78;4139339;28;20736;-91
2022/06/30 08:03:38;;;;;;;7.60;6.80;;;;;;;32.76;59.46;97734.59;4127733;28;20628;-92
2022/06/30 08:05:42;;;;;;;9.30;6.57;;;;;;;32.55;59.50;97734.59;4156900;28;21099;-92
2022/06/30 08:07:45;;;;;;;9.30;6.60;;;;;;;32.48;57.81;97737.50;4121684;28;21137;-92
2022/06/30 08:09:48;;;;;;;7.30;6.60;;;;;;;32.58;60.25;97739.50;4139484;28;20642;-92
2022/06/30 08:11:53;;;;;;;7.97;6.40;;;;;;;32.66;58.85;97731.78;4138531;28;20696;-92
2022/06/30 08:13:56;;;;;;;7.00;6.40;;;;;;;32.79;60.73;97739.50;4143601;28;20615;-92
2022/06/30 08:16:01;;;;;;;8.30;6.40;;;;;;;32.81;59.47;97726.56;4130242;28;20639;-92
2022/06/30 08:18:04;;;;;;;8.23;6.07;;;;;;;32.85;59.56;97731.19;4132173;28;20675;-92
2022/06/30 08:20:08;;;;;;;10.33;6.80;;;;;;;32.95;59.57;97735.94;4131769;28;20719;-91
2022/06/30 08:22:11;;;;;;;7.40;6.80;;;;;;;33.02;60.25;97737.38;4133345;28;20639;-92
2022/06/30 08:24:14;;;;;;;6.23;5.73;;;;;;;33.11;58.71;97722.31;4149157;28;20634;-92
2022/06/30 08:26:18;;;;;;;7.07;6.37;;;;;;;33.29;59.26;97727.38;4132264;28;20643;-92
2022/06/30 08:28:21;;;;;;;7.90;6.10;;;;;;;33.47;56.86;97729.75;4145164;28;20631;-93
2022/06/30 08:30:24;;;;;;;7.00;6.30;;;;;;;33.49;56.30;97724.88;4130476;28;20745;-92
2022/06/30 08:32:29;;;;;;;10.80;7.33;;;;;;;33.47;55.30;97719.72;4127780;28;20639;-92
2022/06/30 08:34:33;;;;;;;13.03;6.70;;;;;;;33.55;57.65;97711.13;4131908;28;21067;-92
2022/06/30 08:36:36;;;;;;;7.27;6.50;;;;;;;33.68;57.03;97715.28;4121841;28;20631;-92
2022/06/30 08:38:40;;;;;;;6.97;6.37;;;;;;;33.67;58.17;97708.25;4129389;28;20623;-93
2022/06/30 08:43:04;;;;;;;8.90;6.57;;;;;;;33.70;57.63;97707.75;4132752;28;20799;-92
2022/06/30 08:45:18;;;;;;;11.40;6.90;;;;;;;33.74;57.75;97703.41;4131260;28;21092;-92
2022/06/30 08:47:21;;;;;;;8.63;6.80;;;;;;;33.77;59.93;97709.16;4139608;28;20718;-91
2022/06/30 08:49:26;;;;;;;7.37;6.50;;;;;;;33.91;58.06;97705.75;4131403;28;20627;-92
2022/06/30 08:51:30;;;;;;;6.83;6.17;;;;;;;33.89;54.53;97710.59;4140708;28;20638;-91
2022/06/30 08:53:40;;;;;;;7.20;6.50;;;;;;;33.60;54.37;97697.63;4137377;28;21061;-91
2022/06/30 08:55:43;;;;;;;6.43;5.80;;;;;;;33.05;54.67;97700.91;4122093;28;21187;-91
2022/06/30 08:57:48;;;;;;;6.90;6.20;;;;;;;32.86;56.75;97692.25;4139550;28;20642;-93
2022/06/30 08:59:52;;;;;;;7.13;6.47;;;;;;;32.95;55.95;97698.06;4142922;28;21244;-93
2022/06/30 09:01:56;;;;;;;6.43;5.93;;;;;;;33.07;55.57;97696.03;4129629;28;20722;-92
2022/06/30 09:04:39;;;;;;;7.00;6.40;;;;;;;33.33;55.75;97695.19;4113976;28;20625;-92
2022/06/30 09:06:44;;;;;;;7.70;6.43;;;;;;;33.44;55.48;97703.19;4099475;29;20689;-91
2022/06/30 09:08:47;;;;;;;7.70;6.50;;;;;;;33.20;54.73;97691.03;4098721;29;20633;-91
2022/06/30 09:10:52;;;;;;;6.93;5.77;;;;;;;33.14;55.47;97691.22;4118716;28;20982;-91
2022/06/30 09:12:58;;;;;;;6.77;6.07;;;;;;;33.22;54.21;97696.19;4143187;28;20634;-92
2022/06/30 09:15:02;;;;;;;6.40;5.90;;;;;;;33.30;55.78;97688.41;4125771;28;20643;-92
2022/06/30 09:17:07;;;;;;;7.03;6.43;;;;;;;33.24;53.65;97688.63;4137943;28;20733;-91
2022/06/30 09:19:52;;;;;;;6.70;5.93;;;;;;;33.25;55.43;97690.25;4134382;28;20631;-92
2022/06/30 09:22:10;;;;;;;6.23;5.60;;;;;;;33.37;54.09;97678.19;4105797;28;20620;-92
2022/06/30 09:24:22;;;;;;;5.93;5.43;;;;;;;33.45;53.84;97686.69;4123497;28;20636;-92
2022/06/30 09:26:26;;;;;;;7.03;6.00;;;;;;;33.47;55.57;97683.75;4136248;28;21182;-92
2022/06/30 09:28:41;;;;;;;7.27;6.33;;;;;;;33.42;58.42;97679.06;4142003;28;20703;-91
2022/06/30 09:31:04;;;;;;;7.07;6.37;;;;;;;33.40;57.96;97680.38;4120106;28;20634;-92
2022/06/30 09:33:08;;;;;;;7.10;6.40;;;;;;;33.42;57.16;97672.81;4118911;28;20630;-92
2022/06/30 09:35:14;;;;;;;6.50;5.67;;;;;;;33.43;57.39;97671.78;4121220;28;20674;-91
2022/06/30 09:37:20;;;;;;;7.67;6.30;;;;;;;33.47;55.35;97681.03;4149576;28;20626;-91
2022/06/30 09:39:23;;;;;;;8.20;7.40;;;;;;;33.53;55.83;97669.13;4141498;28;20669;-90
2022/06/30 09:41:29;;;;;;;6.30;5.70;;;;;;;33.51;52.54;97671.31;4137646;28;21286;-92
2022/06/30 09:43:33;;;;;;;7.30;5.50;;;;;;;33.32;52.97;97663.78;4153570;28;20643;-91
2022/06/30 09:45:39;;;;;;;6.23;5.70;;;;;;;33.24;54.77;97675.09;4133047;28;20734;-92
2022/06/30 09:47:53;;;;;;;7.20;6.10;;;;;;;33.30;54.78;97657.84;4128661;28;20690;-91
2022/06/30 09:50:01;;;;;;;6.80;6.07;;;;;;;33.34;54.60;97660.56;4138560;28;20642;-92
2022/06/30 09:52:15;;;;;;;6.20;5.47;;;;;;;33.34;52.81;97655.16;4130519;28;20761;-92
2022/06/30 09:54:19;;;;;;;6.47;5.87;;;;;;;33.35;54.90;97664.91;4139684;28;20745;-91